首页
METAR-TAF:

METAR-TAF

机场 :

巴尼亚卢卡, 波斯尼亚和黑塞哥维那

纬度: 44-47N, 经度: 017-13E, 海拔: 156米

当前天气观测

该预报发布于8分钟前的07:00 UTC
风速4节,风向东北
温度 0°C
湿度 93%
气压 1025 hPa
能見度: 1200
多云层高于300英尺
阴天层高于2700英尺

METAR: LQBK 310700Z 04004KT 1200 R17/1100N SN BKN003 OVC027 00/M01 Q1025 NOSIG

时间: 09:08 (07:08 UTC)

预报

该预报发布于2小时和8分钟前的05:00 UTC
预报有效从31日的 06点(UTC)到 01日的 06点(UTC)
风速6节,风向东转东北
能见度10公里或以上
散云层高于1500英尺
多云层高于4000英尺
短暂存在
从 31日的 06点(UTC)到 31日的 12点(UTC)
能見度: 4000
小雪, 雨

TAF: LQBK 310500Z 3106/0106 07006KT 9999 SCT015 BKN040 TX05/3114Z TNM04/0105Z TEMPO 3106/3112 4000 -SNRA

超过4000个机场的气象观测和天气预报(METAR&TAF报告)。

可查询的气象台以黄色和红色小点在地图上表示。

将鼠标移到小点上方,可查看气象台名称。

然后点击查看天气观测和预报。

如需切换地图:点击带黑十字的绿色按钮放大地图;点击带横线的绿色按钮缩小地图;或者点击绿色箭头查看邻近地区的地图。


METAR-TAF: